Time;durP1;ratioP1;P1;durP2;ratioP2;P2;SDS_P1;SDS_P2;PMS_P1;PMS_P2;Temp;Humidity;BMP_temperature;BMP_pressure;BME280_temperature;BME280_humidity;BME280_pressure;Samples;Min_cycle;Max_cycle;Signal;HPM_P1;HPM_P2
2023/09/25 00:00:56;;;;;;;2.40;1.02;;;12.30;99.90;;;;;;5155505;27;20476;-26
2023/09/25 00:03:22;;;;;;;2.28;1.30;;;12.30;99.90;;;;;;5155478;27;20105;-26
2023/09/25 00:05:48;;;;;;;4.50;1.50;;;12.30;99.90;;;;;;5156312;27;20372;-26
2023/09/25 00:08:13;;;;;;;5.03;1.38;;;12.30;99.90;;;;;;5155783;27;20386;-26
2023/09/25 00:10:41;;;;;;;5.00;1.20;;;12.40;99.90;;;;;;5155446;27;20043;-26
2023/09/25 00:13:07;;;;;;;3.15;1.42;;;12.40;99.90;;;;;;5155814;27;20054;-26
2023/09/25 00:15:34;;;;;;;5.78;1.30;;;12.40;99.90;;;;;;5154272;27;20046;-26
2023/09/25 00:18:00;;;;;;;4.25;1.75;;;12.40;99.90;;;;;;5155410;27;20119;-26
2023/09/25 00:20:26;;;;;;;2.83;1.20;;;12.40;99.90;;;;;;5155626;27;20460;-24
2023/09/25 00:22:52;;;;;;;4.05;1.65;;;12.40;99.90;;;;;;5155047;27;20480;-26
2023/09/25 00:25:22;;;;;;;2.90;1.10;;;12.40;99.90;;;;;;5154682;27;20047;-26
2023/09/25 00:27:48;;;;;;;2.95;1.50;;;12.40;99.90;;;;;;5155657;27;20494;-26
2023/09/25 00:30:14;;;;;;;3.17;1.50;;;12.40;99.90;;;;;;5156106;27;20038;-26
2023/09/25 00:32:43;;;;;;;3.28;1.50;;;12.40;99.90;;;;;;5156082;27;20410;-26
2023/09/25 00:35:10;;;;;;;3.95;1.58;;;12.40;99.90;;;;;;5155723;27;20042;-26
2023/09/25 00:37:39;;;;;;;2.40;1.35;;;12.30;99.90;;;;;;5154519;27;20055;-26
2023/09/25 00:40:19;;;;;;;4.03;1.35;;;12.30;99.90;;;;;;5155156;27;20146;-26
2023/09/25 00:42:56;;;;;;;2.75;1.60;;;12.20;99.90;;;;;;5155690;27;20421;-26
2023/09/25 00:45:22;;;;;;;3.53;1.92;;;12.20;99.90;;;;;;5155179;27;20068;-26
2023/09/25 00:47:51;;;;;;;4.28;1.42;;;12.30;99.90;;;;;;5153900;27;20034;-26
2023/09/25 00:50:18;;;;;;;3.03;1.25;;;12.20;99.90;;;;;;5155069;27;20051;-26
2023/09/25 00:52:45;;;;;;;5.20;1.40;;;12.20;99.90;;;;;;5155002;27;20399;-26
2023/09/25 00:55:13;;;;;;;2.15;1.38;;;12.20;99.90;;;;;;5155082;27;20400;-26
2023/09/25 00:57:39;;;;;;;2.38;1.20;;;12.20;99.90;;;;;;5155866;27;20041;-26
2023/09/25 01:00:10;;;;;;;3.15;1.58;;;12.20;99.90;;;;;;5154979;27;20092;-26
2023/09/25 01:02:36;;;;;;;3.88;1.38;;;12.10;99.90;;;;;;5154966;27;20034;-26
2023/09/25 01:05:04;;;;;;;3.33;1.35;;;12.10;99.90;;;;;;5153722;27;20047;-26
2023/09/25 01:07:30;;;;;;;4.85;1.77;;;12.10;99.90;;;;;;5154890;27;20043;-26
2023/09/25 01:10:16;;;;;;;3.85;1.67;;;12.10;99.90;;;;;;5155021;27;20079;-27
2023/09/25 01:12:42;;;;;;;3.00;1.42;;;12.10;99.90;;;;;;5159381;27;20038;-26
2023/09/25 01:15:08;;;;;;;4.35;1.80;;;12.10;99.90;;;;;;5158736;27;20050;-26
2023/09/25 01:17:36;;;;;;;3.03;1.38;;;12.00;99.90;;;;;;5159248;27;20043;-26
2023/09/25 01:20:13;;;;;;;2.60;1.30;;;12.00;99.90;;;;;;5158629;27;20051;-26
2023/09/25 01:22:51;;;;;;;2.83;1.38;;;11.90;99.90;;;;;;5159223;27;20100;-26
2023/09/25 01:25:19;;;;;;;5.82;1.75;;;11.90;99.90;;;;;;5159433;27;20452;-27
2023/09/25 01:27:47;;;;;;;4.20;1.90;;;11.80;99.90;;;;;;5158452;27;20047;-26
2023/09/25 01:30:14;;;;;;;5.28;2.25;;;11.80;99.90;;;;;;5140094;27;20533;-26
2023/09/25 01:32:44;;;;;;;3.17;1.95;;;11.80;99.90;;;;;;5158360;27;20038;-26
2023/09/25 01:35:19;;;;;;;3.75;1.77;;;11.70;99.90;;;;;;5157147;27;20046;-26
2023/09/25 01:37:46;;;;;;;4.00;1.65;;;11.80;99.90;;;;;;5158303;27;20047;-26
2023/09/25 01:40:18;;;;;;;2.80;1.60;;;11.70;99.90;;;;;;5158250;27;20050;-27
2023/09/25 01:42:47;;;;;;;4.95;1.88;;;11.70;99.90;;;;;;5158105;27;20472;-26
2023/09/25 01:45:18;;;;;;;11.10;1.90;;;11.70;99.90;;;;;;5158106;27;20039;-26
2023/09/25 01:47:51;;;;;;;4.28;2.15;;;11.70;99.90;;;;;;5158399;27;20136;-26
2023/09/25 01:50:18;;;;;;;7.22;1.85;;;11.70;99.90;;;;;;5158629;27;20046;-26
2023/09/25 01:52:46;;;;;;;2.35;1.50;;;11.70;99.90;;;;;;5158458;27;20125;-26
2023/09/25 01:55:12;;;;;;;4.32;2.33;;;11.60;99.90;;;;;;5157585;27;20524;-26
2023/09/25 01:57:37;;;;;;;3.03;1.60;;;11.60;99.90;;;;;;5157880;27;20046;-26
2023/09/25 02:00:09;;;;;;;5.13;1.92;;;11.60;99.90;;;;;;5158652;27;20084;-26
2023/09/25 02:02:36;;;;;;;2.53;1.73;;;11.50;99.90;;;;;;5157823;27;20054;-26
2023/09/25 02:05:02;;;;;;;4.97;1.92;;;11.50;99.90;;;;;;5157446;27;20518;-26
2023/09/25 02:07:28;;;;;;;4.10;2.42;;;11.40;99.90;;;;;;5157702;27;20547;-26
2023/09/25 02:09:54;;;;;;;3.38;1.98;;;11.30;99.90;;;;;;5157679;27;20160;-26
2023/09/25 02:12:19;;;;;;;3.63;1.88;;;11.30;99.90;;;;;;5157612;27;20078;-26
2023/09/25 02:14:45;;;;;;;6.05;2.58;;;11.30;99.90;;;;;;5157507;27;20043;-26
2023/09/25 02:17:11;;;;;;;3.67;1.63;;;11.20;99.90;;;;;;5156780;27;20046;-26
2023/09/25 02:19:37;;;;;;;5.63;2.13;;;11.20;99.90;;;;;;5156345;27;20042;-25
2023/09/25 02:22:06;;;;;;;4.57;2.17;;;11.20;99.90;;;;;;5156887;27;20050;-26
2023/09/25 02:24:34;;;;;;;3.30;1.90;;;11.10;99.90;;;;;;5157347;27;20057;-26
2023/09/25 02:27:00;;;;;;;4.60;2.58;;;11.00;99.90;;;;;;5156177;27;20051;-26
2023/09/25 02:29:25;;;;;;;5.38;2.40;;;11.00;99.90;;;;;;5157258;27;20111;-26
2023/09/25 02:31:51;;;;;;;3.13;2.08;;;11.00;99.90;;;;;;5157144;27;20545;-26
2023/09/25 02:34:16;;;;;;;3.45;2.38;;;11.00;99.90;;;;;;5157430;27;20426;-26
2023/09/25 02:36:42;;;;;;;3.80;2.35;;;10.90;99.90;;;;;;5157411;27;20502;-26
2023/09/25 02:39:10;;;;;;;4.35;2.35;;;10.90;99.90;;;;;;5155858;27;20050;-26
2023/09/25 02:41:36;;;;;;;5.78;2.22;;;10.90;99.90;;;;;;5157502;27;20055;-26
2023/09/25 02:44:01;;;;;;;5.72;2.33;;;10.90;99.90;;;;;;5156938;27;20366;-26
2023/09/25 02:46:27;;;;;;;3.47;2.42;;;10.90;99.90;;;;;;5156785;27;20038;-26
2023/09/25 02:48:53;;;;;;;4.80;2.35;;;10.90;99.90;;;;;;5138908;27;20047;-26
2023/09/25 02:51:18;;;;;;;6.07;2.58;;;10.90;99.90;;;;;;5157106;27;20047;-26
2023/09/25 02:53:44;;;;;;;5.97;2.35;;;10.90;99.90;;;;;;5157026;27;20469;-26
2023/09/25 02:56:11;;;;;;;6.22;2.95;;;10.90;99.90;;;;;;5156592;27;20507;-26
2023/09/25 02:58:37;;;;;;;3.92;2.38;;;10.90;99.90;;;;;;5155980;27;20060;-26
2023/09/25 03:01:03;;;;;;;5.47;2.22;;;11.00;99.90;;;;;;5156617;27;20126;-26
2023/09/25 03:03:32;;;;;;;4.85;2.28;;;11.00;99.90;;;;;;5137975;27;20099;-26
2023/09/25 03:06:00;;;;;;;5.20;2.90;;;10.90;99.90;;;;;;5156575;27;20046;-26
2023/09/25 03:08:26;;;;;;;3.67;1.98;;;11.00;99.90;;;;;;5155357;27;20086;-26
2023/09/25 03:10:51;;;;;;;6.00;2.63;;;11.00;99.90;;;;;;5156444;27;20089;-26
2023/09/25 03:13:17;;;;;;;4.05;2.10;;;10.90;99.90;;;;;;5156000;27;20046;-26
2023/09/25 03:15:43;;;;;;;2.78;2.17;;;11.00;99.90;;;;;;5155216;27;20126;-26
2023/09/25 03:18:11;;;;;;;3.53;2.38;;;10.90;99.90;;;;;;5157121;27;20046;-26
2023/09/25 03:20:38;;;;;;;3.70;2.17;;;10.90;99.90;;;;;;5156113;27;20046;-26
2023/09/25 03:23:04;;;;;;;4.53;2.28;;;10.90;99.90;;;;;;5155940;27;20385;-26
2023/09/25 03:25:34;;;;;;;6.10;2.80;;;10.90;99.90;;;;;;5154991;27;20095;-26
2023/09/25 03:28:00;;;;;;;4.65;2.35;;;10.90;99.90;;;;;;5156986;27;20141;-26
2023/09/25 03:30:26;;;;;;;3.70;1.98;;;10.90;99.90;;;;;;5156105;27;20130;-26
2023/09/25 03:32:54;;;;;;;4.05;2.40;;;10.90;99.90;;;;;;5138493;27;20137;-26
2023/09/25 03:35:23;;;;;;;3.58;2.55;;;10.90;99.90;;;;;;5154876;27;20129;-25
2023/09/25 03:37:49;;;;;;;6.45;2.85;;;10.90;99.90;;;;;;5154665;27;20126;-26
2023/09/25 03:40:14;;;;;;;4.50;2.28;;;10.90;99.90;;;;;;5156110;27;20078;-26
2023/09/25 03:42:41;;;;;;;5.07;2.53;;;10.90;99.90;;;;;;5155718;27;20034;-26
2023/09/25 03:45:07;;;;;;;3.47;2.10;;;10.90;99.90;;;;;;5155832;27;20034;-26
2023/09/25 03:47:34;;;;;;;4.22;2.45;;;10.80;99.90;;;;;;5154619;27;20046;-26
2023/09/25 03:50:01;;;;;;;3.42;2.60;;;10.90;99.90;;;;;;5155783;27;20054;-26
2023/09/25 03:52:27;;;;;;;5.72;2.17;;;10.80;99.90;;;;;;5154990;27;20051;-26
2023/09/25 03:54:53;;;;;;;3.10;2.33;;;10.80;99.90;;;;;;5155703;27;20046;-26
2023/09/25 03:57:18;;;;;;;3.80;2.10;;;10.60;99.90;;;;;;5155700;27;20050;-26
2023/09/25 03:59:44;;;;;;;7.20;2.60;;;10.70;99.90;;;;;;5155924;27;20099;-26
2023/09/25 04:02:10;;;;;;;5.80;2.47;;;10.70;99.90;;;;;;5154515;27;20051;-26
2023/09/25 04:04:35;;;;;;;5.15;2.50;;;10.70;99.90;;;;;;5155483;27;20549;-26
2023/09/25 04:07:01;;;;;;;4.63;2.30;;;10.70;99.90;;;;;;5155391;27;20126;-26
2023/09/25 04:09:27;;;;;;;4.95;2.60;;;10.70;99.90;;;;;;5155781;27;20411;-26
2023/09/25 04:11:53;;;;;;;4.38;2.20;;;10.70;99.90;;;;;;5155491;27;20384;-26
2023/09/25 04:14:19;;;;;;;4.10;2.45;;;10.70;99.90;;;;;;5155448;27;20400;-26
2023/09/25 04:16:45;;;;;;;5.00;2.10;;;10.70;99.90;;;;;;5155030;27;20134;-26
2023/09/25 04:19:12;;;;;;;5.50;2.42;;;10.80;99.90;;;;;;5155426;27;20042;-26
2023/09/25 04:21:38;;;;;;;7.68;2.78;;;10.80;99.90;;;;;;5155266;27;20124;-26
2023/09/25 04:24:04;;;;;;;6.40;2.65;;;10.90;99.90;;;;;;5155333;27;20504;-26
2023/09/25 04:26:30;;;;;;;3.45;2.30;;;10.90;99.90;;;;;;5155303;27;20058;-26
2023/09/25 04:28:57;;;;;;;6.20;2.60;;;10.90;99.90;;;;;;5156117;27;20460;-26
2023/09/25 04:31:23;;;;;;;4.35;2.50;;;10.90;99.90;;;;;;5156069;27;20179;-26
2023/09/25 04:33:48;;;;;;;3.00;2.17;;;10.90;99.90;;;;;;5156101;27;20095;-26
2023/09/25 04:36:14;;;;;;;3.15;2.47;;;10.90;99.90;;;;;;5155211;27;20488;-26
2023/09/25 04:38:40;;;;;;;3.30;2.38;;;10.80;99.90;;;;;;5137453;27;20043;-25
2023/09/25 04:41:08;;;;;;;3.70;2.30;;;10.80;99.90;;;;;;5155950;27;20042;-26
2023/09/25 04:43:34;;;;;;;5.57;2.53;;;10.80;99.90;;;;;;5155052;27;20425;-26
2023/09/25 04:46:00;;;;;;;5.20;2.47;;;10.80;99.90;;;;;;5157147;27;20046;-26
2023/09/25 04:48:26;;;;;;;6.03;2.42;;;10.80;99.90;;;;;;5158250;27;20047;-26
2023/09/25 04:50:52;;;;;;;4.82;2.42;;;10.90;99.90;;;;;;5159153;27;20050;-25
2023/09/25 04:53:21;;;;;;;3.63;2.63;;;10.90;99.90;;;;;;5159560;27;20082;-26
2023/09/25 04:55:46;;;;;;;5.63;2.95;;;10.80;99.90;;;;;;5159665;27;20046;-26
2023/09/25 04:58:12;;;;;;;4.38;2.53;;;10.80;99.90;;;;;;5159547;27;20056;-26
2023/09/25 05:00:39;;;;;;;4.22;2.60;;;10.80;99.90;;;;;;5158971;27;20043;-26
2023/09/25 05:03:04;;;;;;;6.93;2.47;;;10.80;99.90;;;;;;5158881;27;20058;-26
2023/09/25 05:05:32;;;;;;;3.45;2.53;;;10.80;99.90;;;;;;5157992;27;20042;-27
2023/09/25 05:07:58;;;;;;;3.20;2.25;;;10.80;99.90;;;;;;5158875;27;20095;-26
2023/09/25 05:10:26;;;;;;;4.13;2.50;;;10.80;99.90;;;;;;5158832;27;20050;-26
2023/09/25 05:12:53;;;;;;;5.97;2.80;;;10.80;99.90;;;;;;5159042;27;20175;-26
2023/09/25 05:15:18;;;;;;;3.30;2.65;;;10.80;99.90;;;;;;5159573;27;20384;-26
2023/09/25 05:17:45;;;;;;;4.47;2.58;;;10.80;99.90;;;;;;5158642;27;20039;-26
2023/09/25 05:20:15;;;;;;;3.72;2.30;;;10.80;99.90;;;;;;5158269;27;20508;-26
2023/09/25 05:22:52;;;;;;;3.30;2.17;;;10.90;99.90;;;;;;5158845;27;20090;-26
2023/09/25 05:25:19;;;;;;;3.67;2.10;;;10.90;99.90;;;;;;5158595;27;20050;-26
2023/09/25 05:27:47;;;;;;;3.33;2.17;;;10.90;99.90;;;;;;5159340;27;20049;-26
2023/09/25 05:30:13;;;;;;;4.63;2.40;;;10.90;99.90;;;;;;5158824;27;20069;-26
2023/09/25 05:32:41;;;;;;;5.78;3.08;;;10.80;99.90;;;;;;5157434;27;20472;-26
2023/09/25 05:35:08;;;;;;;5.72;3.10;;;10.80;99.90;;;;;;5158341;27;20039;-26
2023/09/25 05:37:33;;;;;;;6.55;3.67;;;10.80;99.90;;;;;;5158209;27;20045;-26
2023/09/25 05:40:10;;;;;;;4.95;3.13;;;10.80;99.90;;;;;;5158188;27;20125;-26
2023/09/25 05:42:42;;;;;;;4.22;2.72;;;10.80;99.90;;;;;;5158083;27;20576;-26
2023/09/25 05:45:11;;;;;;;5.32;2.78;;;10.80;99.90;;;;;;5157448;27;20061;-26
2023/09/25 05:47:37;;;;;;;3.85;2.60;;;10.80;99.90;;;;;;5157922;27;20107;-27
2023/09/25 05:50:06;;;;;;;6.43;3.28;;;10.80;99.90;;;;;;5157941;27;20057;-26
2023/09/25 05:52:34;;;;;;;8.90;3.47;;;10.80;99.90;;;;;;5157863;27;20042;-26
2023/09/25 05:55:00;;;;;;;5.90;2.88;;;10.90;99.90;;;;;;5158026;27;20130;-26
2023/09/25 05:57:26;;;;;;;6.35;2.85;;;10.90;99.90;;;;;;5155457;27;20046;-26
2023/09/25 05:59:52;;;;;;;3.78;2.67;;;11.00;99.90;;;;;;5157860;27;20059;-26
2023/09/25 06:02:18;;;;;;;4.82;2.75;;;11.10;99.90;;;;;;5157785;27;20126;-26
2023/09/25 06:04:44;;;;;;;5.03;2.97;;;11.10;99.90;;;;;;5156373;27;20074;-26
2023/09/25 06:07:09;;;;;;;5.20;2.75;;;11.20;99.90;;;;;;5157932;27;20038;-26
2023/09/25 06:09:35;;;;;;;4.20;2.53;;;11.30;99.90;;;;;;5157617;27;20049;-26
2023/09/25 06:12:03;;;;;;;7.72;3.20;;;11.30;99.90;;;;;;5157510;27;20050;-26
2023/09/25 06:14:29;;;;;;;3.10;2.33;;;11.40;99.90;;;;;;5157814;27;20472;-26
2023/09/25 06:16:57;;;;;;;4.75;2.80;;;11.40;99.90;;;;;;5157548;27;20053;-26
2023/09/25 06:19:24;;;;;;;5.35;2.58;;;11.40;99.90;;;;;;5156461;27;20499;-26
2023/09/25 06:21:51;;;;;;;7.60;2.83;;;11.50;99.90;;;;;;5157419;27;20057;-26
2023/09/25 06:24:17;;;;;;;3.47;2.03;;;11.50;99.90;;;;;;5156436;27;20046;-26
2023/09/25 06:26:46;;;;;;;5.03;2.38;;;11.50;99.90;;;;;;5157859;27;20496;-26
2023/09/25 06:29:13;;;;;;;3.45;1.90;;;11.60;99.90;;;;;;5157765;27;20041;-26
2023/09/25 06:31:39;;;;;;;6.95;2.33;;;11.70;99.90;;;;;;5157233;27;20050;-26
2023/09/25 06:34:07;;;;;;;4.07;2.50;;;11.70;99.90;;;;;;5156046;27;20082;-26
2023/09/25 06:36:36;;;;;;;4.97;2.28;;;11.70;99.90;;;;;;5156994;27;20410;-26
2023/09/25 06:39:06;;;;;;;3.30;2.00;;;11.90;99.90;;;;;;5157049;27;20093;-26
2023/09/25 06:41:33;;;;;;;4.78;1.80;;;11.90;99.90;;;;;;5157013;27;20042;-26
2023/09/25 06:43:59;;;;;;;4.05;2.10;;;12.00;99.90;;;;;;5156609;27;20502;-27
2023/09/25 06:46:25;;;;;;;5.05;1.90;;;12.10;99.90;;;;;;5157278;27;20047;-26
2023/09/25 06:48:51;;;;;;;3.80;1.90;;;12.10;99.90;;;;;;5157487;27;20046;-26
2023/09/25 06:51:20;;;;;;;5.07;2.05;;;12.20;99.90;;;;;;5156794;27;20051;-26
2023/09/25 06:53:46;;;;;;;4.43;1.90;;;12.20;99.90;;;;;;5155428;27;20074;-26
2023/09/25 06:56:11;;;;;;;5.15;1.58;;;12.20;99.90;;;;;;5156721;27;20046;-27
2023/09/25 06:58:39;;;;;;;3.83;1.73;;;12.20;99.90;;;;;;5155435;27;20043;-26
2023/09/25 07:01:05;;;;;;;4.43;1.70;;;12.30;99.90;;;;;;5156629;27;20053;-27
2023/09/25 07:03:31;;;;;;;3.67;1.60;;;12.30;99.90;;;;;;5156811;27;20049;-26
2023/09/25 07:05:57;;;;;;;2.97;1.67;;;12.30;99.90;;;;;;5156223;27;20047;-27
2023/09/25 07:08:25;;;;;;;3.22;1.88;;;12.40;99.90;;;;;;5156499;27;20054;-26
2023/09/25 07:10:51;;;;;;;5.60;1.90;;;12.50;99.90;;;;;;5156394;27;20047;-27
2023/09/25 07:13:16;;;;;;;3.60;2.05;;;12.50;99.90;;;;;;5156980;27;20117;-26
2023/09/25 07:15:43;;;;;;;3.83;2.05;;;12.60;99.90;;;;;;5156169;27;20064;-26
2023/09/25 07:18:10;;;;;;;2.67;1.77;;;12.70;99.90;;;;;;5156739;27;20450;-27
2023/09/25 07:20:36;;;;;;;2.90;1.77;;;12.80;99.90;;;;;;5156239;27;20129;-27
2023/09/25 07:23:01;;;;;;;3.60;1.95;;;12.90;99.90;;;;;;5156763;27;20441;-26
2023/09/25 07:25:27;;;;;;;4.00;1.60;;;13.00;99.90;;;;;;5156678;27;20046;-26
2023/09/25 07:27:53;;;;;;;3.53;1.38;;;13.10;99.90;;;;;;5155814;27;20038;-27
2023/09/25 07:30:19;;;;;;;5.00;1.63;;;13.30;99.90;;;;;;5156666;27;20039;-26
2023/09/25 07:32:44;;;;;;;7.43;1.90;;;13.40;99.90;;;;;;5156053;27;20045;-26
2023/09/25 07:35:15;;;;;;;2.97;1.30;;;13.50;99.90;;;;;;5156257;27;20125;-26
2023/09/25 07:37:41;;;;;;;2.25;1.50;;;13.50;99.90;;;;;;5156611;27;20078;-26
2023/09/25 07:40:11;;;;;;;5.30;1.83;;;13.60;1.00;;;;;;5155894;27;20046;-27
2023/09/25 07:42:38;;;;;;;2.75;1.27;;;13.70;1.00;;;;;;5155284;27;20042;-27
2023/09/25 07:45:11;;;;;;;3.53;1.25;;;13.70;1.00;;;;;;5155755;27;20498;-26
2023/09/25 07:47:40;;;;;;;4.45;1.30;;;13.80;1.00;;;;;;5155932;27;20073;-26
2023/09/25 07:50:10;;;;;;;3.00;1.55;;;13.90;1.00;;;;;;5155033;27;20047;-26
2023/09/25 07:52:38;;;;;;;5.05;1.70;;;13.90;1.00;;;;;;5154693;27;20042;-26
2023/09/25 07:55:08;;;;;;;4.70;1.80;;;13.90;1.00;;;;;;5137503;27;20054;-26
2023/09/25 07:57:39;;;;;;;3.65;1.42;;;14.00;1.00;;;;;;5155661;27;20047;-26
2023/09/25 08:00:38;;;;;;;5.03;1.65;;;14.00;1.00;;;;;;5155601;27;20078;-26
2023/09/25 08:02:56;;;;;;;2.70;1.50;;;14.10;1.00;;;;;;5155735;27;20446;-26
2023/09/25 08:05:22;;;;;;;6.10;1.73;;;14.20;1.00;;;;;;5154157;27;20130;-26
2023/09/25 08:07:52;;;;;;;7.75;2.42;;;14.20;1.00;;;;;;5154391;27;20133;-26
2023/09/25 08:10:18;;;;;;;2.22;1.30;;;14.20;99.90;;;;;;5155353;27;20488;-26
2023/09/25 08:12:47;;;;;;;2.40;1.42;;;14.30;99.90;;;;;;5155244;27;20047;-26
2023/09/25 08:15:13;;;;;;;2.78;1.40;;;14.40;99.90;;;;;;5155436;27;20048;-26
2023/09/25 08:17:43;;;;;;;2.25;1.50;;;14.50;1.00;;;;;;5154184;27;20047;-27
2023/09/25 08:20:20;;;;;;;3.97;1.60;;;14.60;99.90;;;;;;5154689;27;20078;-26
2023/09/25 08:22:47;;;;;;;3.03;1.30;;;14.70;99.90;;;;;;5155900;27;20047;-26
2023/09/25 08:25:16;;;;;;;3.97;1.45;;;14.80;99.90;;;;;;5137918;27;20047;-26
2023/09/25 08:27:42;;;;;;;4.47;1.45;;;14.90;99.90;;;;;;5155201;27;20049;-26
2023/09/25 08:30:08;;;;;;;2.45;1.02;;;14.90;17.70;;;;;;5155464;27;20078;-27
2023/09/25 08:32:34;;;;;;;3.47;1.38;;;15.10;90.90;;;;;;5155201;27;20043;-27
2023/09/25 08:35:01;;;;;;;3.15;1.40;;;15.20;99.90;;;;;;5155782;27;20112;-26
2023/09/25 08:37:27;;;;;;;2.88;1.40;;;15.40;99.90;;;;;;5155262;27;20054;-26
2023/09/25 08:39:54;;;;;;;7.03;1.15;;;15.50;99.90;;;;;;5154909;27;20500;-27
2023/09/25 08:42:21;;;;;;;3.78;1.40;;;15.50;37.40;;;;;;5155443;27;20099;-27
2023/09/25 08:44:51;;;;;;;5.53;0.95;;;15.40;99.90;;;;;;5155539;27;20051;-26
2023/09/25 08:47:21;;;;;;;4.47;1.48;;;15.50;99.90;;;;;;5155095;27;20042;-27
2023/09/25 08:49:52;;;;;;;2.83;1.17;;;15.50;99.90;;;;;;5155145;27;20042;-27
2023/09/25 08:52:21;;;;;;;2.65;1.70;;;15.70;1.00;;;;;;5155025;27;20122;-27
2023/09/25 08:54:50;;;;;;;2.63;1.35;;;15.80;99.90;;;;;;5155038;27;20042;-26
2023/09/25 08:57:20;;;;;;;2.60;1.10;;;15.90;99.90;;;;;;5155576;27;20388;-27
2023/09/25 08:59:49;;;;;;;3.15;1.27;;;15.90;99.90;;;;;;5154990;27;20049;-27
2023/09/25 09:02:15;;;;;;;2.70;1.40;;;15.90;99.90;;;;;;5154930;27;20445;-27
2023/09/25 09:04:41;;;;;;;3.28;1.30;;;16.00;99.90;;;;;;5154947;27;20050;-26
2023/09/25 09:07:10;;;;;;;2.72;1.30;;;16.20;99.90;;;;;;5153982;27;20043;-26
2023/09/25 09:09:37;;;;;;;4.68;1.67;;;16.40;1.00;;;;;;5154926;27;20039;-26
2023/09/25 09:12:03;;;;;;;3.15;1.35;;;16.50;99.90;;;;;;5154739;27;20054;-27
2023/09/25 09:14:34;;;;;;;2.25;1.17;;;16.90;99.90;;;;;;5154944;27;20426;-26
2023/09/25 09:17:04;;;;;;;3.20;1.50;;;17.10;1.00;;;;;;5154865;27;20554;-27
2023/09/25 09:19:35;;;;;;;2.42;1.10;;;17.20;99.90;;;;;;5154863;27;20047;-26
2023/09/25 09:22:05;;;;;;;3.10;1.67;;;17.30;99.90;;;;;;5154256;27;20104;-26
2023/09/25 09:24:35;;;;;;;4.32;1.55;;;17.30;1.00;;;;;;5154771;27;20050;-26
2023/09/25 09:27:01;;;;;;;4.35;1.30;;;17.30;99.90;;;;;;5154759;27;20043;-26
2023/09/25 09:29:27;;;;;;;3.75;1.33;;;17.40;99.90;;;;;;5136372;27;20078;-26
2023/09/25 09:31:56;;;;;;;3.75;1.27;;;17.50;99.90;;;;;;5156973;27;20403;-26
2023/09/25 09:34:27;;;;;;;3.13;1.67;;;17.40;99.90;;;;;;5157205;27;20039;-26
2023/09/25 09:36:53;;;;;;;2.78;1.38;;;17.60;1.00;;;;;;5158355;27;20384;-26
2023/09/25 09:39:25;;;;;;;2.53;1.20;;;17.80;55.80;;;;;;5158313;27;20167;-25
2023/09/25 09:41:52;;;;;;;2.92;1.58;;;18.20;99.90;;;;;;5158201;27;20099;-26
2023/09/25 09:44:19;;;;;;;3.05;1.35;;;18.60;99.90;;;;;;5158222;27;20050;-25
2023/09/25 09:46:50;;;;;;;3.83;1.25;;;18.90;1.00;;;;;;5156959;27;20046;-26
2023/09/25 09:49:22;;;;;;;3.78;1.30;;;18.70;99.90;;;;;;5158225;27;20058;-26
2023/09/25 09:51:50;;;;;;;2.80;1.47;;;18.60;1.00;;;;;;5156876;27;20042;-24
2023/09/25 09:54:19;;;;;;;4.35;1.48;;;18.80;99.90;;;;;;5156745;27;20072;-25
2023/09/25 09:56:48;;;;;;;2.90;1.40;;;18.60;1.00;;;;;;5157977;27;20054;-26
2023/09/25 09:59:15;;;;;;;4.28;1.33;;;18.30;79.50;;;;;;5157901;27;20038;-25
2023/09/25 10:01:49;;;;;;;4.95;1.55;;;18.50;99.90;;;;;;5156703;27;20069;-25
2023/09/25 10:04:15;;;;;;;6.13;1.67;;;18.80;99.90;;;;;;5157880;27;20082;-25
2023/09/25 10:06:50;;;;;;;4.13;1.40;;;18.80;99.90;;;;;;5158358;27;20134;-25
2023/09/25 10:09:16;;;;;;;4.32;1.10;;;19.20;1.00;;;;;;5157713;27;20118;-25
2023/09/25 10:11:43;;;;;;;5.15;1.33;;;19.50;99.90;;;;;;5156125;27;20479;-25
2023/09/25 10:14:09;;;;;;;3.03;1.33;;;20.20;40.70;;;;;;5157643;27;20046;-25
2023/09/25 10:17:05;;;;;;;6.10;1.63;;;20.30;1.00;;;;;;5157514;27;20483;-26
2023/09/25 10:19:49;;;;;;;2.55;1.25;;;20.30;99.90;;;;;;5155240;27;20108;-25
2023/09/25 10:22:26;;;;;;;2.13;1.40;;;20.10;99.90;;;;;;5157692;27;20051;-24
2023/09/25 10:25:10;;;;;;;2.28;1.25;;;19.90;1.00;;;;;;5157322;27;20050;-25
2023/09/25 10:27:43;;;;;;;2.95;1.25;;;20.10;1.00;;;;;;5157431;27;20085;-25
2023/09/25 10:30:14;;;;;;;2.63;1.30;;;20.10;6.70;;;;;;5157620;27;20549;-25
2023/09/25 10:32:55;;;;;;;3.38;1.40;;;20.00;1.00;;;;;;5157330;27;20039;-25
2023/09/25 10:35:40;;;;;;;5.25;1.30;;;19.90;1.00;;;;;;5157205;27;20050;-25
2023/09/25 10:38:25;;;;;;;4.20;1.42;;;20.20;99.90;;;;;;5157419;27;20446;-25
2023/09/25 10:40:54;;;;;;;5.00;1.73;;;20.30;1.00;;;;;;5156473;27;20092;-25
2023/09/25 10:43:22;;;;;;;4.18;1.73;;;20.40;1.00;;;;;;5155054;27;20061;-25
2023/09/25 10:45:49;;;;;;;3.65;1.58;;;20.60;99.90;;;;;;5153916;27;20038;-24
2023/09/25 10:48:16;;;;;;;3.35;1.38;;;20.70;1.00;;;;;;5149039;27;20058;-25
2023/09/25 10:50:47;;;;;;;2.22;1.33;;;20.70;1.00;;;;;;5147834;27;20047;-25
2023/09/25 10:53:16;;;;;;;2.60;1.50;;;20.90;1.00;;;;;;5136361;27;20118;-26
2023/09/25 10:55:42;;;;;;;2.90;1.60;;;20.80;99.90;;;;;;5134867;27;20100;-26
2023/09/25 10:58:12;;;;;;;3.75;1.80;;;21.00;1.00;;;;;;5136034;27;20104;-25
2023/09/25 11:00:39;;;;;;;2.85;1.25;;;21.20;99.90;;;;;;5136018;27;20103;-25
2023/09/25 11:03:05;;;;;;;2.95;1.30;;;21.10;99.90;;;;;;5135007;27;20537;-26
2023/09/25 11:05:33;;;;;;;5.22;1.67;;;21.20;99.90;;;;;;5135878;27;20047;-25
2023/09/25 11:08:00;;;;;;;2.95;1.50;;;21.10;99.90;;;;;;5135815;27;20054;-26
2023/09/25 11:10:33;;;;;;;5.15;1.48;;;21.50;1.00;;;;;;5135809;27;20047;-26
2023/09/25 11:13:00;;;;;;;7.18;2.05;;;21.60;99.90;;;;;;5134657;27;20047;-26
2023/09/25 11:15:29;;;;;;;3.45;1.67;;;21.80;1.00;;;;;;5135717;27;20046;-26
2023/09/25 11:17:57;;;;;;;4.05;1.58;;;21.80;99.90;;;;;;5134404;27;20039;-26
2023/09/25 11:20:29;;;;;;;3.47;1.65;;;22.20;1.00;;;;;;5135566;27;20047;-26
2023/09/25 11:23:09;;;;;;;2.85;1.13;;;21.90;99.90;;;;;;5134135;27;20112;-26
2023/09/25 11:25:43;;;;;;;4.05;1.50;;;21.30;99.90;;;;;;5136114;27;20184;-26
2023/09/25 11:28:12;;;;;;;3.38;1.58;;;20.90;1.00;;;;;;5135828;27;20043;-26
2023/09/25 11:30:38;;;;;;;3.85;1.48;;;20.70;10.40;;;;;;5136012;27;20188;-27
2023/09/25 11:33:11;;;;;;;3.80;1.50;;;20.40;61.20;;;;;;5135396;27;20122;-25
2023/09/25 11:35:39;;;;;;;2.50;1.58;;;20.30;1.00;;;;;;5135373;27;20086;-26
2023/09/25 11:38:23;;;;;;;3.22;1.67;;;20.30;95.60;;;;;;5133799;27;20488;-26
2023/09/25 11:40:50;;;;;;;5.22;1.48;;;20.10;1.00;;;;;;5135866;27;20043;-26
2023/09/25 11:43:16;;;;;;;3.42;1.73;;;20.20;96.70;;;;;;5133971;27;20062;-26
2023/09/25 11:45:42;;;;;;;5.22;1.92;;;21.00;32.30;;;;;;5134433;27;20488;-25
2023/09/25 11:48:09;;;;;;;3.15;1.50;;;22.00;1.00;;;;;;5135131;27;20104;-26
2023/09/25 11:50:35;;;;;;;3.10;1.38;;;22.10;1.00;;;;;;5133917;27;20117;-26
2023/09/25 11:53:01;;;;;;;3.92;1.58;;;21.70;1.00;;;;;;5134985;27;20483;-26
2023/09/25 11:55:28;;;;;;;5.38;1.88;;;21.50;1.00;;;;;;5132871;27;20463;-25
2023/09/25 11:57:54;;;;;;;3.63;1.50;;;21.40;1.00;;;;;;5134967;27;20130;-26
2023/09/25 12:00:22;;;;;;;3.42;1.70;;;21.90;1.00;;;;;;5134946;27;20108;-27
2023/09/25 12:02:48;;;;;;;3.78;1.50;;;21.50;1.00;;;;;;5134051;27;20083;-26
2023/09/25 12:05:16;;;;;;;4.65;1.80;;;21.00;1.00;;;;;;5133590;27;20072;-26
2023/09/25 12:07:42;;;;;;;7.32;2.03;;;21.00;1.00;;;;;;5135095;27;20096;-26
2023/09/25 12:10:12;;;;;;;5.90;1.60;;;20.70;1.00;;;;;;5134800;27;20050;-26
2023/09/25 12:12:41;;;;;;;4.03;1.80;;;20.70;99.90;;;;;;5133840;27;20046;-26
2023/09/25 12:15:10;;;;;;;2.78;1.50;;;20.70;99.90;;;;;;5134714;27;20046;-27
2023/09/25 12:17:36;;;;;;;7.15;2.15;;;21.30;99.90;;;;;;5134429;27;20400;-26
2023/09/25 12:20:14;;;;;;;4.57;1.90;;;21.70;99.90;;;;;;5133606;28;20051;-26
2023/09/25 12:22:42;;;;;;;3.17;1.92;;;21.80;99.90;;;;;;5134954;27;20468;-27
2023/09/25 12:25:11;;;;;;;2.40;1.50;;;21.50;61.40;;;;;;5135466;27;20109;-26
2023/09/25 12:27:42;;;;;;;2.92;1.38;;;21.50;42.90;;;;;;5134939;27;20046;-26
2023/09/25 12:30:19;;;;;;;5.47;1.77;;;21.80;99.90;;;;;;5134659;27;20051;-27
2023/09/25 12:32:48;;;;;;;5.50;1.75;;;21.90;1.00;;;;;;5134294;28;20075;-26
2023/09/25 12:35:18;;;;;;;3.67;1.50;;;21.50;1.00;;;;;;5135084;27;20054;-26
2023/09/25 12:37:52;;;;;;;5.57;1.92;;;21.30;1.00;;;;;;5117442;28;20044;-27
2023/09/25 12:40:18;;;;;;;2.85;1.48;;;21.20;99.90;;;;;;5135385;27;20370;-26
2023/09/25 12:42:46;;;;;;;4.13;1.50;;;21.70;99.90;;;;;;5133382;28;20096;-26
2023/09/25 12:45:12;;;;;;;4.95;2.03;;;22.00;52.30;;;;;;5134407;27;20043;-26
2023/09/25 12:47:39;;;;;;;3.83;1.60;;;22.50;1.00;;;;;;5134398;27;20039;-26
2023/09/25 12:50:05;;;;;;;2.83;1.38;;;24.00;1.00;;;;;;5134967;27;20396;-26
2023/09/25 12:52:31;;;;;;;4.18;1.58;;;24.20;1.00;;;;;;5134808;27;20122;-29